TimeCDT,TemperatureF,Dew PointF,Humidity,Sea Level PressureIn,VisibilityMPH,Wind Direction,Wind SpeedMPH,Gust SpeedMPH,PrecipitationIn,Events,Conditions,WindDirDegrees,DateUTC
12:53 AM,60.1,59.0,96,30.13,7.0,Calm,Calm,-,N/A,,Clear,0,2012-10-04 05:53:00
1:53 AM,62.1,59.0,90,30.14,8.0,Calm,Calm,-,N/A,,Clear,0,2012-10-04 06:53:00
2:53 AM,61.0,57.9,90,30.14,9.0,SSE,3.5,-,N/A,,Clear,160,2012-10-04 07:53:00
3:53 AM,64.0,61.0,90,30.16,9.0,SSE,5.8,-,N/A,,Mostly Cloudy,160,2012-10-04 08:53:00
4:53 AM,63.0,60.1,90,30.17,8.0,South,3.5,-,0.01,,Clear,170,2012-10-04 09:53:00
5:53 AM,61.0,59.0,93,30.19,7.0,Calm,Calm,-,N/A,,Clear,0,2012-10-04 10:53:00
6:53 AM,60.1,59.0,96,30.20,6.0,Calm,Calm,-,N/A,,Clear,0,2012-10-04 11:53:00
7:53 AM,64.0,62.1,93,30.22,6.0,SSE,6.9,-,N/A,,Clear,160,2012-10-04 12:53:00
8:53 AM,69.1,64.9,87,30.24,9.0,SSE,5.8,-,N/A,,Clear,160,2012-10-04 13:53:00
9:53 AM,73.0,64.9,76,30.25,10.0,South,5.8,-,N/A,,Clear,190,2012-10-04 14:53:00
10:53 AM,75.9,66.0,71,30.25,10.0,SW,8.1,-,N/A,,Partly Cloudy,230,2012-10-04 15:53:00
11:53 AM,79.0,66.0,64,30.24,10.0,South,6.9,-,N/A,,Scattered Clouds,170,2012-10-04 16:53:00
12:53 PM,77.0,64.0,64,30.22,10.0,WSW,3.5,-,N/A,,Mostly Cloudy,240,2012-10-04 17:53:00
1:53 PM,81.0,62.1,52,30.19,10.0,South,6.9,-,N/A,,Partly Cloudy,180,2012-10-04 18:53:00
2:53 PM,82.9,62.1,49,30.17,10.0,Variable,4.6,-,N/A,,Mostly Cloudy,0,2012-10-04 19:53:00
3:53 PM,82.0,62.1,51,30.17,10.0,SE,8.1,-,N/A,,Mostly Cloudy,140,2012-10-04 20:53:00
4:53 PM,81.0,61.0,50,30.16,10.0,Calm,Calm,-,N/A,,Clear,0,2012-10-04 21:53:00
5:53 PM,79.0,62.1,56,30.16,10.0,SE,4.6,-,N/A,,Clear,130,2012-10-04 22:53:00
6:53 PM,70.0,66.0,87,30.15,10.0,Calm,Calm,-,N/A,,Clear,0,2012-10-04 23:53:00
7:53 PM,68.0,66.0,93,30.15,6.0,Calm,Calm,-,N/A,,Clear,0,2012-10-05 00:53:00
8:53 PM,66.0,64.9,96,30.16,6.0,Calm,Calm,-,N/A,,Clear,0,2012-10-05 01:53:00
9:53 PM,64.9,64.0,97,30.17,6.0,ENE,3.5,-,N/A,,Clear,70,2012-10-05 02:53:00
10:53 PM,64.9,63.0,93,30.17,6.0,Calm,Calm,-,N/A,,Clear,0,2012-10-05 03:53:00
11:53 PM,63.0,62.1,97,30.17,8.0,Calm,Calm,-,N/A,,Clear,0,2012-10-05 04:53:00